createdAt,value
2018-03-07T00:01:23.776Z,66.56
2018-03-07T00:03:53.808Z,66.51
2018-03-07T00:06:24.626Z,65.92
2018-03-07T00:08:56.500Z,65.21
2018-03-07T00:11:26.032Z,65.45
2018-03-07T00:13:56.596Z,65.66
2018-03-07T00:16:26.526Z,65.32
2018-03-07T00:18:58.065Z,65.42
2018-03-07T00:21:28.988Z,64.92
2018-03-07T00:23:58.798Z,65.13
2018-03-07T00:26:29.660Z,65.15
2018-03-07T00:29:00.290Z,65.04
2018-03-07T00:31:30.076Z,65.97
2018-03-07T00:34:00.451Z,66.29
2018-03-07T00:36:30.552Z,66.25
2018-03-07T00:39:01.372Z,65.64
2018-03-07T00:41:31.600Z,65.92
2018-03-07T00:44:07.145Z,65.51
2018-03-07T00:46:37.605Z,65.65
2018-03-07T00:49:07.820Z,65.66
2018-03-07T00:51:38.240Z,65.50
2018-03-07T00:54:08.253Z,65.39
2018-03-07T00:56:38.109Z,65.28
2018-03-07T00:59:08.503Z,65.26
2018-03-07T01:01:38.396Z,65.67
2018-03-07T01:04:09.609Z,65.88
2018-03-07T01:06:39.618Z,65.70
2018-03-07T01:09:09.327Z,65.62
2018-03-07T01:11:39.352Z,65.14
2018-03-07T01:14:09.070Z,65.96
2018-03-07T01:16:38.862Z,66.31
2018-03-07T01:19:10.056Z,66.25
2018-03-07T01:21:40.747Z,65.64
2018-03-07T01:24:10.285Z,65.47
2018-03-07T01:26:40.204Z,65.71
2018-03-07T01:29:10.302Z,65.73
2018-03-07T01:31:40.029Z,66.11
2018-03-07T01:34:10.211Z,66.08
2018-03-07T01:36:40.234Z,65.96
2018-03-07T01:39:09.918Z,65.86
2018-03-07T01:41:39.549Z,65.84
2018-03-07T01:44:09.982Z,65.67
2018-03-07T01:46:39.669Z,65.90
2018-03-07T01:49:09.914Z,65.82
2018-03-07T01:51:49.628Z,65.76
2018-03-07T01:57:34.492Z,65.86
2018-03-07T02:00:04.424Z,65.91
2018-03-07T02:02:34.722Z,65.84
2018-03-07T02:05:08.443Z,65.59
2018-03-07T02:07:38.395Z,65.43
2018-03-07T02:10:11.098Z,65.33
2018-03-07T02:12:41.972Z,65.31
2018-03-07T02:15:12.792Z,65.26
2018-03-07T02:17:42.610Z,65.25
2018-03-07T02:20:14.533Z,65.09
2018-03-07T02:22:44.781Z,65.00
2018-03-07T02:25:15.968Z,65.02
2018-03-07T02:27:46.803Z,65.16
2018-03-07T02:30:17.885Z,65.08
2018-03-07T02:32:48.596Z,64.94
2018-03-07T02:35:18.552Z,64.95
2018-03-07T02:37:51.309Z,65.11
2018-03-07T02:40:21.641Z,65.31
2018-03-07T02:42:52.001Z,65.41
2018-03-07T02:45:22.944Z,65.38
2018-03-07T02:47:54.617Z,65.47
2018-03-07T02:50:24.644Z,65.50
2018-03-07T02:52:54.359Z,65.50
2018-03-07T02:55:24.253Z,65.39
2018-03-07T02:57:54.207Z,65.70
2018-03-07T03:00:24.961Z,65.71
2018-03-07T03:02:55.313Z,65.56
2018-03-07T03:05:25.243Z,65.94
2018-03-07T03:07:55.262Z,66.29
2018-03-07T03:10:26.063Z,66.19
2018-03-07T03:12:56.950Z,66.40
2018-03-07T03:15:26.893Z,66.54
2018-03-07T03:17:57.606Z,66.69
2018-03-07T03:20:27.779Z,66.70
2018-03-07T03:22:58.920Z,66.68
2018-03-07T03:25:28.774Z,66.65
2018-03-07T03:27:59.982Z,66.69
2018-03-07T03:30:29.687Z,66.67
2018-03-07T03:32:59.547Z,67.00
2018-03-07T03:35:29.969Z,67.00
2018-03-07T03:38:01.139Z,67.02
2018-03-07T03:40:33.399Z,67.02
2018-03-07T03:43:05.068Z,67.01
2018-03-07T03:45:35.780Z,67.03
2018-03-07T03:48:06.121Z,66.91
2018-03-07T03:50:36.445Z,66.57
2018-03-07T03:53:06.079Z,66.47
2018-03-07T03:55:36.164Z,66.56
2018-03-07T03:58:07.105Z,66.94
2018-03-07T04:00:37.061Z,66.76
2018-03-07T04:03:07.445Z,66.81
2018-03-07T04:05:38.683Z,67.02
2018-03-07T04:08:09.659Z,67.52
2018-03-07T04:10:39.980Z,67.39
2018-03-07T04:13:09.719Z,67.12
2018-03-07T04:15:39.578Z,66.89
2018-03-07T04:18:09.705Z,67.01
2018-03-07T04:20:39.442Z,67.02
2018-03-07T04:23:09.043Z,66.93
2018-03-07T04:25:39.015Z,67.09
2018-03-07T04:28:10.338Z,66.76
2018-03-07T04:30:39.877Z,67.29
2018-03-07T04:33:10.047Z,66.96
2018-03-07T04:35:39.604Z,66.79
2018-03-07T04:38:09.926Z,67.65
2018-03-07T04:40:40.025Z,67.47
2018-03-07T04:43:09.919Z,67.33
2018-03-07T04:45:39.818Z,67.88
2018-03-07T04:48:09.409Z,67.84
2018-03-07T04:50:39.038Z,68.43
2018-03-07T04:53:08.948Z,67.66
2018-03-07T04:55:39.046Z,67.72
2018-03-07T04:58:08.833Z,67.63
2018-03-07T05:00:39.896Z,67.52
2018-03-07T05:03:10.629Z,66.99
2018-03-07T05:05:40.545Z,66.92
2018-03-07T05:08:10.514Z,67.25
2018-03-07T05:10:40.803Z,66.41
2018-03-07T05:13:10.431Z,66.54
2018-03-07T05:15:40.322Z,66.27
2018-03-07T05:18:10.192Z,65.24
2018-03-07T05:20:40.178Z,65.18
2018-03-07T05:23:10.697Z,65.24
2018-03-07T05:25:40.814Z,64.72
2018-03-07T05:28:11.240Z,64.82
2018-03-07T05:30:41.005Z,64.75
2018-03-07T05:33:11.200Z,64.66
2018-03-07T05:35:40.989Z,64.03
2018-03-07T05:38:11.081Z,64.39
2018-03-07T05:40:41.036Z,64.18
2018-03-07T05:43:10.975Z,64.02
2018-03-07T05:45:40.787Z,63.84
2018-03-07T05:48:11.586Z,64.04
2018-03-07T05:50:41.695Z,64.36
2018-03-07T05:53:12.021Z,63.47
2018-03-07T05:55:44.388Z,63.55
2018-03-07T05:58:14.812Z,63.79
2018-03-07T06:00:44.392Z,63.45
2018-03-07T06:03:14.467Z,63.49
2018-03-07T06:05:44.828Z,63.29
2018-03-07T06:08:17.363Z,63.43
2018-03-07T06:10:48.816Z,63.85
2018-03-07T06:13:19.173Z,63.97
2018-03-07T06:15:48.881Z,64.09
2018-03-07T06:18:18.892Z,63.81
2018-03-07T06:20:48.533Z,63.89
2018-03-07T06:23:18.149Z,63.36
2018-03-07T06:25:48.260Z,64.10
2018-03-07T06:28:18.766Z,63.86
2018-03-07T06:30:49.216Z,63.44
2018-03-07T06:33:19.769Z,63.52
2018-03-07T06:35:49.204Z,64.16
2018-03-07T06:38:18.741Z,63.86
2018-03-07T06:40:49.776Z,63.62
2018-03-07T06:43:19.606Z,63.15
2018-03-07T06:45:49.388Z,63.67
2018-03-07T06:48:19.132Z,63.48
2018-03-07T06:50:50.240Z,63.68
2018-03-07T06:53:20.153Z,64.10
2018-03-07T06:55:50.533Z,64.32
2018-03-07T06:58:20.692Z,63.48
2018-03-07T07:00:50.102Z,62.82
2018-03-07T07:03:20.380Z,62.75
2018-03-07T07:05:49.951Z,63.34
2018-03-07T07:08:19.504Z,62.57
2018-03-07T07:10:48.974Z,62.82
2018-03-07T07:13:19.807Z,62.39
2018-03-07T07:15:50.637Z,61.81
2018-03-07T07:18:21.752Z,60.85
2018-03-07T07:20:51.834Z,61.15
2018-03-07T07:23:25.445Z,60.68
2018-03-07T07:25:54.970Z,60.51
2018-03-07T07:28:24.845Z,59.84
2018-03-07T07:30:54.535Z,59.86
2018-03-07T07:33:24.974Z,59.68
2018-03-07T07:35:54.747Z,59.48
2018-03-07T07:38:28.233Z,59.34
2018-03-07T07:40:58.310Z,60.02
2018-03-07T07:43:30.341Z,60.09
2018-03-07T07:46:00.439Z,59.58
2018-03-07T07:48:30.478Z,58.88
2018-03-07T07:51:00.152Z,58.71
2018-03-07T07:53:30.558Z,58.18
2018-03-07T07:56:01.986Z,57.93
2018-03-07T07:58:32.048Z,57.19
2018-03-07T08:01:02.502Z,56.92
2018-03-07T08:03:32.026Z,57.28
2018-03-07T08:06:02.353Z,57.87
2018-03-07T08:08:32.641Z,58.21
2018-03-07T08:11:04.814Z,57.50
2018-03-07T08:13:35.252Z,57.44
2018-03-07T08:16:05.910Z,58.95
2018-03-07T08:18:36.066Z,58.26
2018-03-07T08:21:06.189Z,58.42
2018-03-07T08:23:36.231Z,57.61
2018-03-07T08:26:06.363Z,57.16
2018-03-07T08:28:36.248Z,56.64
2018-03-07T08:31:06.652Z,56.47
2018-03-07T08:33:36.134Z,56.02
2018-03-07T08:36:06.689Z,56.03
2018-03-07T08:38:36.585Z,56.36
2018-03-07T08:41:06.412Z,56.68
2018-03-07T08:43:36.842Z,56.52
2018-03-07T08:46:06.743Z,56.52
2018-03-07T08:48:36.655Z,57.19
2018-03-07T08:51:06.968Z,57.51
2018-03-07T08:53:36.742Z,57.44
2018-03-07T08:56:07.432Z,57.24
2018-03-07T08:58:37.524Z,57.44
2018-03-07T09:01:07.588Z,57.17
2018-03-07T09:03:37.381Z,58.14
2018-03-07T09:06:07.452Z,58.48
2018-03-07T09:08:36.836Z,58.73
2018-03-07T09:11:06.678Z,58.71
2018-03-07T09:13:36.941Z,59.14
2018-03-07T09:16:06.764Z,58.56
2018-03-07T09:18:36.198Z,58.39
2018-03-07T09:21:05.762Z,57.78
2018-03-07T09:23:35.468Z,57.71
2018-03-07T09:26:06.320Z,57.94
2018-03-07T09:28:36.616Z,58.56
2018-03-07T09:31:06.648Z,59.30
2018-03-07T09:33:36.323Z,60.09
2018-03-07T09:36:06.604Z,58.67
2018-03-07T09:38:36.072Z,57.97
2018-03-07T09:41:07.043Z,57.35
2018-03-07T09:43:36.483Z,57.45
2018-03-07T09:46:06.105Z,57.85
2018-03-07T09:48:36.448Z,57.36
2018-03-07T09:51:06.524Z,56.54
2018-03-07T09:53:36.244Z,56.20
2018-03-07T09:56:06.531Z,56.38
2018-03-07T09:58:36.062Z,55.92
2018-03-07T10:01:06.481Z,55.17
2018-03-07T10:03:36.551Z,54.00
2018-03-07T10:06:07.781Z,53.07
2018-03-07T10:08:37.603Z,52.31
2018-03-07T10:11:08.224Z,52.22
2018-03-07T10:13:38.077Z,52.55
2018-03-07T10:16:09.304Z,51.47
2018-03-07T10:18:39.474Z,51.15
2018-03-07T10:21:08.974Z,51.13
2018-03-07T10:23:38.824Z,51.90
2018-03-07T10:26:08.702Z,53.39
2018-03-07T10:28:38.383Z,54.84
2018-03-07T10:31:09.502Z,55.05
2018-03-07T10:33:39.778Z,55.98
2018-03-07T10:36:10.514Z,54.41
2018-03-07T10:38:39.968Z,53.84
2018-03-07T10:41:11.029Z,53.26
2018-03-07T10:43:40.927Z,53.16
2018-03-07T10:46:10.760Z,53.01
2018-03-07T10:48:41.146Z,53.46
2018-03-07T10:51:11.442Z,52.70
2018-03-07T10:53:41.003Z,51.23
2018-03-07T10:56:18.610Z,51.25
2018-03-07T10:58:48.957Z,51.46
2018-03-07T11:01:19.986Z,52.34
2018-03-07T11:03:50.254Z,53.17
2018-03-07T11:06:20.031Z,53.07
2018-03-07T11:08:50.667Z,52.07
2018-03-07T11:11:20.299Z,53.14
2018-03-07T11:13:49.791Z,54.09
2018-03-07T11:16:19.669Z,54.66
2018-03-07T11:18:49.254Z,55.61
2018-03-07T11:21:18.778Z,55.04
2018-03-07T11:23:49.883Z,54.29
2018-03-07T11:26:20.723Z,53.28
2018-03-07T11:28:50.822Z,53.45
2018-03-07T11:31:21.306Z,53.66
2018-03-07T11:33:51.252Z,53.49
2018-03-07T11:36:20.941Z,53.71
2018-03-07T11:38:50.808Z,52.67
2018-03-07T11:41:20.330Z,51.52
2018-03-07T11:43:51.372Z,52.01
2018-03-07T11:46:21.539Z,53.94
2018-03-07T11:48:51.274Z,54.52
2018-03-07T11:51:21.683Z,54.90
2018-03-07T11:53:51.963Z,55.10
2018-03-07T11:56:22.511Z,54.41
2018-03-07T11:58:52.408Z,52.57
2018-03-07T12:01:22.566Z,51.60
2018-03-07T12:03:53.415Z,51.43
2018-03-07T12:06:23.409Z,50.26
2018-03-07T12:08:53.347Z,48.04
2018-03-07T12:11:29.278Z,46.90
2018-03-07T12:13:59.333Z,46.14
2018-03-07T12:16:30.092Z,45.75
2018-03-07T12:18:59.786Z,46.74
2018-03-07T12:21:29.624Z,46.72
2018-03-07T12:23:59.513Z,45.94
2018-03-07T12:26:30.708Z,46.06
2018-03-07T12:29:03.155Z,45.62
2018-03-07T12:32:35.932Z,46.72
2018-03-07T12:35:08.864Z,47.61
2018-03-07T12:38:33.730Z,48.49
2018-03-07T13:56:20.472Z,48.68
2018-03-07T13:58:51.302Z,49.30
2018-03-07T14:01:21.605Z,48.36
2018-03-07T14:03:52.450Z,47.26
2018-03-07T14:06:23.603Z,47.65
2018-03-07T14:08:55.391Z,47.22
2018-03-07T14:11:25.571Z,47.16
2018-03-07T14:13:56.308Z,47.94
2018-03-07T14:16:26.692Z,48.56
2018-03-07T14:18:56.975Z,49.04
2018-03-07T14:21:26.890Z,49.58
2018-03-07T14:23:57.152Z,50.80
2018-03-07T14:26:26.906Z,51.39
2018-03-07T14:28:57.419Z,51.66
2018-03-07T14:31:27.299Z,51.04
2018-03-07T14:33:57.182Z,51.43
2018-03-07T14:36:26.885Z,52.34
2018-03-07T14:38:56.385Z,53.69
2018-03-07T14:41:26.327Z,54.72
2018-03-07T14:43:55.905Z,54.51
2018-03-07T14:46:26.879Z,53.72
2018-03-07T14:48:56.826Z,52.79
2018-03-07T14:51:27.071Z,53.29
2018-03-07T14:53:57.148Z,53.34
2018-03-07T14:56:27.707Z,53.59
2018-03-07T14:58:58.444Z,53.68
2018-03-07T15:01:28.214Z,54.07
2018-03-07T15:03:57.808Z,53.80
2018-03-07T15:06:27.573Z,53.72
2018-03-07T15:08:57.551Z,54.28
2018-03-07T15:11:28.652Z,53.49
2018-03-07T15:13:58.106Z,53.95
2018-03-07T15:16:28.073Z,53.71
2018-03-07T15:18:57.657Z,52.73
2018-03-07T15:21:28.686Z,52.66
2018-03-07T15:23:58.626Z,53.22
2018-03-07T15:26:29.662Z,53.31
2018-03-07T15:28:59.477Z,52.86
2018-03-07T15:31:30.494Z,52.32
2018-03-07T15:34:00.894Z,52.59
2018-03-07T15:36:30.636Z,52.61
2018-03-07T15:39:00.311Z,52.79
2018-03-07T15:41:30.426Z,52.93
2018-03-07T15:44:00.574Z,52.35
2018-03-07T15:46:33.817Z,52.88
2018-03-07T15:49:04.645Z,53.77
2018-03-07T15:51:34.532Z,53.89
2018-03-07T15:54:09.366Z,54.44
2018-03-07T15:56:39.233Z,54.40
2018-03-07T15:59:08.921Z,53.65
2018-03-07T16:01:38.630Z,53.65
2018-03-07T16:04:08.110Z,54.23
2018-03-07T16:06:37.630Z,54.33
2018-03-07T16:09:07.892Z,54.55
2018-03-07T16:11:37.856Z,54.49
2018-03-07T16:14:07.540Z,54.25
2018-03-07T16:16:37.332Z,54.71
2018-03-07T16:19:06.770Z,54.97
2018-03-07T16:21:36.444Z,54.43
2018-03-07T16:24:06.439Z,53.87
2018-03-07T16:26:35.894Z,54.08
2018-03-07T16:29:06.516Z,54.51
2018-03-07T16:31:36.239Z,53.85
2018-03-07T16:34:07.336Z,53.56
2018-03-07T16:36:37.057Z,53.80
2018-03-07T16:39:06.770Z,53.90
2018-03-07T16:41:36.230Z,53.86
2018-03-07T16:44:10.301Z,54.18
2018-03-07T16:46:40.233Z,54.58
2018-03-07T16:49:09.683Z,54.59
2018-03-07T16:51:39.475Z,54.17
2018-03-07T16:54:09.120Z,55.34
2018-03-07T16:56:38.512Z,55.40
2018-03-07T16:59:08.050Z,55.55
2018-03-07T17:01:37.658Z,55.40
2018-03-07T17:04:08.447Z,55.97
2018-03-07T17:06:38.857Z,55.88
2018-03-07T17:09:08.662Z,56.46
2018-03-07T17:11:38.375Z,55.87
2018-03-07T17:14:09.410Z,56.38
2018-03-07T17:16:38.980Z,57.81
2018-03-07T17:19:09.132Z,57.48
2018-03-07T17:21:39.597Z,56.99
2018-03-07T17:24:10.036Z,57.40
2018-03-07T17:26:39.692Z,57.47
2018-03-07T17:29:09.308Z,57.34
2018-03-07T17:31:38.829Z,57.91
2018-03-07T17:34:08.316Z,58.49
2018-03-07T17:36:37.911Z,58.62
2018-03-07T17:39:07.397Z,58.67
2018-03-07T17:41:37.342Z,58.82
2018-03-07T17:44:07.443Z,59.24
2018-03-07T17:46:36.969Z,59.18
2018-03-07T17:49:06.465Z,59.30
2018-03-07T17:51:36.122Z,58.46
2018-03-07T17:54:06.509Z,57.61
2018-03-07T17:56:36.418Z,56.99
2018-03-07T17:59:05.911Z,57.32
2018-03-07T18:01:35.401Z,56.45
2018-03-07T18:04:08.901Z,56.55
2018-03-07T18:06:38.905Z,56.57
2018-03-07T18:09:08.858Z,57.09
2018-03-07T18:11:38.419Z,58.04
2018-03-07T18:14:08.103Z,57.74
2018-03-07T18:16:50.106Z,57.64
2018-03-07T18:19:19.992Z,57.27
2018-03-07T18:21:50.356Z,56.50
2018-03-07T18:24:19.983Z,56.84
2018-03-07T18:26:49.576Z,56.96
2018-03-07T18:29:19.680Z,57.59
2018-03-07T18:31:49.187Z,57.96
2018-03-07T18:34:18.730Z,58.98
2018-03-07T18:36:48.807Z,59.15
2018-03-07T18:39:18.436Z,58.55
2018-03-07T18:41:48.080Z,58.98
2018-03-07T18:44:18.202Z,58.82
2018-03-07T18:46:49.743Z,58.72
2018-03-07T18:49:19.548Z,59.02
2018-03-07T18:51:49.624Z,59.51
2018-03-07T18:54:19.480Z,59.64
2018-03-07T18:56:50.080Z,58.92
2018-03-07T18:59:22.441Z,58.83
2018-03-07T19:01:56.034Z,58.38
2018-03-07T19:04:25.507Z,59.18
2018-03-07T19:06:55.474Z,60.06
2018-03-07T19:09:25.366Z,60.10
2018-03-07T19:11:55.202Z,60.18
2018-03-07T19:14:27.416Z,60.28
2018-03-07T19:16:57.268Z,60.76
2018-03-07T19:19:27.096Z,60.88
2018-03-07T19:21:58.467Z,61.10
2018-03-07T19:24:31.235Z,61.35
2018-03-07T19:27:04.354Z,61.39
2018-03-07T19:29:38.144Z,60.87
2018-03-07T19:32:10.083Z,59.71
2018-03-07T19:34:43.474Z,59.95
2018-03-07T19:37:13.118Z,59.76
2018-03-07T19:39:44.038Z,59.56
2018-03-07T19:42:14.584Z,60.04
2018-03-07T19:44:44.496Z,59.94
2018-03-07T19:47:14.713Z,60.07
2018-03-07T19:49:44.321Z,60.10
2018-03-07T19:52:14.710Z,59.79
2018-03-07T19:54:44.567Z,59.87
2018-03-07T19:57:14.864Z,59.40
2018-03-07T19:59:44.447Z,58.29
2018-03-07T20:02:14.107Z,57.49
2018-03-07T20:04:44.000Z,57.86
2018-03-07T20:07:13.894Z,57.12
2018-03-07T20:09:43.766Z,57.17
2018-03-07T20:12:15.824Z,57.40
2018-03-07T20:14:48.180Z,57.68
2018-03-07T20:17:18.085Z,57.25
2018-03-07T20:19:48.739Z,56.59
2018-03-07T20:22:19.629Z,56.58
2018-03-07T20:24:49.278Z,56.34
2018-03-07T20:27:19.602Z,56.30
2018-03-07T20:29:50.819Z,55.83
2018-03-07T20:32:21.388Z,55.81
2018-03-07T20:34:50.927Z,56.17
2018-03-07T20:37:21.801Z,55.89
2018-03-07T20:39:52.144Z,55.96
2018-03-07T20:42:21.617Z,56.30
2018-03-07T20:44:52.255Z,56.37
2018-03-07T20:47:22.506Z,56.27
2018-03-07T20:49:52.134Z,56.09
2018-03-07T20:52:21.955Z,56.05
2018-03-07T20:54:51.866Z,56.22
2018-03-07T20:57:21.871Z,56.24
2018-03-07T20:59:51.385Z,56.59
2018-03-07T21:02:21.671Z,56.93
2018-03-07T21:04:51.156Z,57.17
2018-03-07T21:07:21.053Z,57.54
2018-03-07T21:09:51.293Z,57.52
2018-03-07T21:12:20.873Z,57.39
2018-03-07T21:14:50.758Z,58.63
2018-03-07T21:17:20.942Z,58.64
2018-03-07T21:19:51.069Z,58.88
2018-03-07T21:22:21.114Z,58.90
2018-03-07T21:24:51.647Z,58.92
2018-03-07T21:27:21.193Z,59.23
2018-03-07T21:29:50.717Z,59.85
2018-03-07T21:32:20.871Z,60.26
2018-03-07T21:34:50.545Z,60.33
2018-03-07T21:37:20.805Z,61.34
2018-03-07T21:39:51.461Z,61.50
2018-03-07T21:42:21.544Z,61.23
2018-03-07T21:44:51.235Z,61.41
2018-03-07T21:47:21.353Z,61.21
2018-03-07T21:49:51.564Z,61.01
2018-03-07T21:52:20.997Z,60.80
2018-03-07T21:54:50.740Z,60.59
2018-03-07T21:57:20.587Z,60.40
2018-03-07T21:59:50.570Z,60.32
2018-03-07T22:02:20.509Z,59.84
2018-03-07T22:04:50.311Z,60.33
2018-03-07T22:07:19.866Z,60.50
2018-03-07T22:09:49.582Z,60.75
2018-03-07T22:12:19.738Z,60.34
2018-03-07T22:14:49.444Z,59.61
2018-03-07T22:17:19.249Z,59.93
2018-03-07T22:19:48.946Z,59.40
2018-03-07T22:22:18.422Z,59.13
2018-03-07T22:24:48.645Z,59.49
2018-03-07T22:27:19.011Z,59.94
2018-03-07T22:29:48.612Z,59.60
2018-03-07T22:32:18.368Z,59.64
2018-03-07T22:34:47.913Z,59.34
2018-03-07T22:37:17.407Z,59.01
2018-03-07T22:39:48.127Z,59.29
2018-03-07T22:42:17.910Z,59.56
2018-03-07T22:44:47.623Z,59.46
2018-03-07T22:47:19.737Z,60.03
2018-03-07T22:49:49.949Z,60.06
2018-03-07T22:52:19.704Z,60.05
2018-03-07T22:54:49.636Z,59.98
2018-03-07T22:57:19.608Z,60.37
2018-03-07T22:59:49.618Z,59.75
2018-03-07T23:02:20.198Z,59.82
2018-03-07T23:04:50.139Z,59.45
2018-03-07T23:07:19.815Z,59.87
2018-03-07T23:09:50.567Z,60.83
2018-03-07T23:12:22.270Z,61.05
2018-03-07T23:14:53.038Z,60.98
2018-03-07T23:17:23.012Z,61.37
2018-03-07T23:19:52.936Z,62.75
2018-03-07T23:22:22.771Z,63.77
2018-03-07T23:24:53.753Z,62.47
2018-03-07T23:27:23.614Z,62.06
2018-03-07T23:29:54.133Z,62.39
2018-03-07T23:32:24.232Z,62.25
2018-03-07T23:34:56.684Z,63.46
2018-03-07T23:37:26.879Z,63.75
2018-03-07T23:39:56.980Z,63.87
2018-03-07T23:42:26.923Z,64.44
2018-03-07T23:44:56.971Z,63.74
2018-03-07T23:47:27.750Z,64.04
2018-03-07T23:49:57.447Z,64.56
2018-03-07T23:52:27.158Z,64.28
2018-03-07T23:54:57.298Z,64.38
2018-03-07T23:57:27.809Z,65.38
2018-03-07T23:59:58.046Z,65.60
